Language: 


Des rapports , des résumés tant et plus, au choix de chacun....


Données statistiques de la station
Quotidien Rapport Novembre 30, 2017 Unités:  Anglais    Métrique   les deux
« Précédent Jour
Suivant Jour »
Quotidien Hebdomadaire Mensuel Annuel Actuel
  Haut: Bas: Moyen:
Température: TemperatureC °F 0.0 °F 2.9 °F
Pt de rosée: DewpointC °F 1.0 °F 2.9 °F
Humidité: Humidity % 0 % 97 %
Vitesse du vent: WindSpeedKMH mph 0.0 mph 6.4 mph
Rafales: WindSpeedGustKMH mph - -
Vent:- - West
Pression: PressurehPa in 0.0 in -
Précipitation: 11.4 in    
Historical Graphs
 
 
Données statistiques pour Novembre 30, 2017
Heure Température Point de rosée Pression Vent Vitesse du vent Refales Humidité Pluie (taux horaire)
TemperatureC °F DewpointC °F PressurehPa in Calm     Humidity % HourlyPrecipMM in
00:01 3.1 °F 3.0 °F 1008.0 in North 8.7 mph 10.1 mph 98 % 0.3 in
00:06 3.2 °F 3.0 °F 1008.0 in West 4.7 mph 10.1 mph 98 % 0.3 in
00:11 3.2 °F 3.0 °F 1007.0 in NW 6.9 mph 10.1 mph 98 % 0.0 in
00:16 3.3 °F 3.0 °F 1007.0 in North 5.0 mph 7.6 mph 98 % 0.0 in
00:21 3.3 °F 3.0 °F 1007.0 in WSW 1.8 mph 9.0 mph 98 % 0.0 in
00:31 3.4 °F 3.0 °F 1008.0 in Calm   9.7 mph 98 % 0.0 in
00:36 3.4 °F 3.0 °F 1008.0 in West 6.4 mph 6.4 mph 98 % 0.0 in
00:41 3.4 °F 3.0 °F 1008.0 in West 6.4 mph 9.0 mph 98 % 0.0 in
00:46 3.4 °F 3.0 °F 1008.0 in WNW 4.3 mph 10.1 mph 98 % 0.0 in
00:48 3.4 °F 3.0 °F 1008.0 in WNW 5.5 mph 10.1 mph 98 % 0.0 in
00:53 3.4 °F 3.0 °F 1008.0 in West 4.7 mph 10.1 mph 98 % 0.0 in
00:58 3.4 °F 3.0 °F 1007.0 in Calm   6.1 mph 98 % 0.0 in
01:04 3.5 °F 4.0 °F 1007.0 in Calm   7.6 mph 98 % 0.0 in
01:10 3.5 °F 4.0 °F 1007.0 in Calm   6.9 mph 98 % 0.0 in
01:19 3.6 °F 4.0 °F 1008.0 in Calm   6.9 mph 98 % 0.3 in
01:24 3.7 °F 4.0 °F 1008.0 in Calm   9.0 mph 98 % 0.3 in
01:34 3.7 °F 4.0 °F 1008.0 in NNW 4.7 mph 12.6 mph 98 % 0.5 in
01:39 3.7 °F 4.0 °F 1008.0 in West 3.2 mph 12.6 mph 98 % 0.5 in
01:44 3.8 °F 4.0 °F 1008.0 in NW 9.3 mph 10.5 mph 98 % 0.5 in
01:49 3.8 °F 4.0 °F 1008.0 in NNW 9.7 mph 14.0 mph 98 % 0.5 in
01:54 3.7 °F 4.0 °F 1008.0 in North 11.9 mph 16.3 mph 98 % 0.8 in
02:05 3.4 °F 3.0 °F 1007.0 in North 6.4 mph 13.0 mph 98 % 1.5 in
02:10 3.4 °F 3.0 °F 1007.0 in North 6.1 mph 11.6 mph 98 % 1.5 in
02:15 3.4 °F 3.0 °F 1007.0 in Calm   11.6 mph 98 % 1.3 in
02:20 3.3 °F 3.0 °F 1007.0 in Calm   9.7 mph 98 % 1.3 in
02:25 3.3 °F 3.0 °F 1007.0 in Calm   6.1 mph 98 % 1.3 in
02:30 3.2 °F 3.0 °F 1007.0 in Calm   6.4 mph 98 % 1.3 in
02:35 3.1 °F 3.0 °F 1007.0 in Calm   6.4 mph 98 % 1.3 in
02:40 3.0 °F 3.0 °F 1007.0 in Calm   4.3 mph 98 % 1.3 in
02:45 3.0 °F 3.0 °F 1007.0 in Calm   1.8 mph 98 % 1.3 in
02:50 3.0 °F 3.0 °F 1007.0 in Calm     98 % 1.3 in
02:55 3.0 °F 3.0 °F 1007.0 in Calm   4.3 mph 98 % 1.0 in
03:02 0.0 °F 3.0 °F 0.0 in West 5.5 mph 6.8 mph 0 % 0.8 in
03:12 3.1 °F 3.0 °F 1008.0 in WNW 3.5 mph 7.6 mph 98 % 1.5 in
03:17 3.0 °F 3.0 °F 1008.0 in Calm   6.4 mph 98 % 1.8 in
03:22 3.0 °F 3.0 °F 1008.0 in Calm   4.0 mph 98 % 2.3 in
03:27 3.0 °F 3.0 °F 1007.0 in Calm   4.0 mph 98 % 2.3 in
03:32 3.0 °F 3.0 °F 1007.0 in Calm     98 % 2.3 in
03:37 3.0 °F 3.0 °F 1007.0 in Calm     98 % 2.3 in
03:40 3.0 °F 3.0 °F 1007.0 in Calm     98 % 2.3 in
03:45 3.0 °F 3.0 °F 1007.0 in Calm     98 % 2.3 in
03:55 3.1 °F 3.0 °F 1007.0 in Calm   5.8 mph 98 % 2.5 in
04:05 3.1 °F 3.0 °F 1006.0 in Calm   4.7 mph 98 % 1.8 in
04:10 3.0 °F 3.0 °F 1006.0 in Calm     98 % 1.5 in
04:15 3.0 °F 3.0 °F 1007.0 in Calm     98 % 0.8 in
04:16 3.0 °F 3.0 °F 1007.0 in Calm     98 % 0.8 in
04:21 3.0 °F 3.0 °F 1007.0 in Calm     98 % 0.5 in
04:26 3.0 °F 3.0 °F 1006.0 in WSW 8.7 mph 9.7 mph 98 % 0.3 in
04:31 3.1 °F 3.0 °F 1006.0 in West 6.9 mph 10.1 mph 98 % 0.3 in
04:36 3.1 °F 3.0 °F 1006.0 in West 9.0 mph 10.5 mph 98 % 0.5 in
04:41 3.2 °F 3.0 °F 1007.0 in Calm   10.5 mph 98 % 0.5 in
04:52 3.4 °F 3.0 °F 1007.0 in Calm   9.7 mph 98 % 0.3 in
04:57 3.7 °F 4.0 °F 1007.0 in West 9.3 mph 9.7 mph 98 % 0.3 in
05:02 3.8 °F 4.0 °F 1007.0 in North 5.0 mph 14.0 mph 98 % 0.3 in
05:12 3.7 °F 4.0 °F 1007.0 in WNW 4.0 mph 15.8 mph 98 % 0.3 in
05:17 3.7 °F 4.0 °F 1007.0 in West 4.0 mph 15.8 mph 98 % 0.3 in
05:22 3.6 °F 4.0 °F 1007.0 in Calm   14.0 mph 98 % 0.3 in
05:27 3.6 °F 4.0 °F 1007.0 in West 5.5 mph 14.0 mph 98 % 0.3 in
05:37 3.7 °F 4.0 °F 1007.0 in North 4.3 mph 11.1 mph 98 % 0.0 in
05:42 3.7 °F 4.0 °F 1007.0 in Calm   10.5 mph 98 % 0.0 in
05:47 3.7 °F 4.0 °F 1007.0 in North 5.0 mph 9.7 mph 98 % 0.0 in
05:52 3.6 °F 4.0 °F 1007.0 in WSW 6.1 mph 13.0 mph 98 % 0.0 in
05:57 3.6 °F 4.0 °F 1007.0 in NNW 9.3 mph 14.0 mph 98 % 0.0 in
06:02 3.6 °F 4.0 °F 1007.0 in West 4.0 mph 14.0 mph 98 % 0.0 in
06:08 3.5 °F 4.0 °F 1007.0 in NW 9.0 mph 13.7 mph 98 % 0.0 in
06:19 3.5 °F 4.0 °F 1007.0 in West 7.9 mph 15.8 mph 98 % 0.0 in
06:24 3.6 °F 4.0 °F 1007.0 in West 5.0 mph 15.8 mph 98 % 0.0 in
06:29 3.6 °F 4.0 °F 1007.0 in West 5.0 mph 11.9 mph 98 % 0.0 in
06:39 3.6 °F 4.0 °F 1007.0 in NW 5.8 mph 10.1 mph 98 % 0.0 in
06:44 3.6 °F 4.0 °F 1007.0 in WNW 10.8 mph 12.2 mph 98 % 0.0 in
06:49 3.7 °F 4.0 °F 1007.0 in West 9.3 mph 16.6 mph 98 % 0.3 in
06:54 3.7 °F 4.0 °F 1007.0 in West 6.9 mph 16.6 mph 98 % 0.3 in
06:59 3.7 °F 4.0 °F 1007.0 in WNW 2.6 mph 10.8 mph 98 % 0.3 in
07:09 3.6 °F 4.0 °F 1007.0 in WNW 8.7 mph 11.9 mph 98 % 0.3 in
07:15 3.6 °F 4.0 °F 1007.0 in West 9.7 mph 11.9 mph 98 % 0.3 in
07:25 3.4 °F 3.0 °F 1007.0 in WNW 9.3 mph 11.6 mph 98 % 0.3 in
07:30 3.4 °F 3.0 °F 1007.0 in West 5.0 mph 12.2 mph 98 % 0.3 in
07:35 3.3 °F 3.0 °F 1007.0 in WNW 5.8 mph 12.6 mph 98 % 0.3 in
07:50 2.8 °F 3.0 °F 1007.0 in WSW 9.0 mph 11.6 mph 98 % 0.0 in
07:56 2.7 °F 3.0 °F 1007.0 in West 6.4 mph 9.7 mph 98 % 0.0 in
08:01 2.6 °F 3.0 °F 1007.0 in West 7.9 mph 9.7 mph 98 % 0.0 in
08:06 2.6 °F 3.0 °F 1007.0 in West 10.5 mph 10.5 mph 98 % 0.0 in
08:11 2.5 °F 3.0 °F 1007.0 in West 9.7 mph 14.3 mph 98 % 0.0 in
08:16 2.5 °F 3.0 °F 1007.0 in NW 5.8 mph 14.3 mph 98 % 0.0 in
08:31 2.7 °F 3.0 °F 1007.0 in West 16.6 mph 19.1 mph 98 % 0.0 in
08:47 2.5 °F 3.0 °F 1007.0 in West 9.7 mph 10.5 mph 98 % 0.0 in
08:57 2.3 °F 3.0 °F 1007.0 in NW 9.0 mph 13.7 mph 98 % 0.0 in
09:02 2.3 °F 3.0 °F 1007.0 in West 12.2 mph 18.0 mph 98 % 0.0 in
09:07 2.3 °F 3.0 °F 1007.0 in West 7.9 mph 18.0 mph 98 % 0.0 in
09:12 2.3 °F 3.0 °F 1007.0 in West 9.3 mph 14.3 mph 98 % 0.0 in
09:18 2.3 °F 3.0 °F 1007.0 in WSW 9.7 mph 15.4 mph 98 % 0.0 in
09:23 2.4 °F 3.0 °F 1007.0 in West 10.1 mph 16.6 mph 98 % 0.0 in
09:28 2.4 °F 3.0 °F 1007.0 in WNW 10.5 mph 16.6 mph 98 % 0.0 in
09:35 2.7 °F 3.0 °F 1007.0 in West 6.4 mph 15.1 mph 98 % 0.0 in
09:45 2.8 °F 3.0 °F 1007.0 in West 13.0 mph 20.9 mph 98 % 0.0 in
09:50 2.8 °F 3.0 °F 1007.0 in NNE 5.5 mph 20.9 mph 98 % 0.0 in
09:55 2.8 °F 3.0 °F 1007.0 in West 10.5 mph 12.6 mph 98 % 0.0 in
10:00 3.0 °F 3.0 °F 1006.0 in West 10.1 mph 16.3 mph 98 % 0.0 in
10:10 3.0 °F 3.0 °F 1006.0 in West 10.1 mph 19.5 mph 98 % 0.0 in
10:15 3.1 °F 3.0 °F 1007.0 in WSW 16.3 mph 16.9 mph 98 % 0.0 in
10:25 3.1 °F 3.0 °F 1007.0 in West 10.1 mph 20.9 mph 98 % 0.0 in
10:30 3.1 °F 3.0 °F 1008.0 in WNW 14.0 mph 17.7 mph 98 % 0.0 in
10:35 3.1 °F 3.0 °F 1008.0 in SW 13.7 mph 16.9 mph 98 % 0.0 in
10:40 3.1 °F 3.0 °F 1007.0 in WSW 16.9 mph 19.1 mph 98 % 0.0 in
10:45 3.1 °F 3.0 °F 1007.0 in West 16.3 mph 20.6 mph 98 % 0.0 in
10:50 3.1 °F 3.0 °F 1007.0 in WNW 13.7 mph 20.6 mph 98 % 0.0 in
10:56 3.1 °F 3.0 °F 1007.0 in WSW 13.0 mph 20.1 mph 98 % 0.0 in
11:01 3.2 °F 3.0 °F 1007.0 in West 10.5 mph 20.6 mph 98 % 0.0 in
11:06 3.3 °F 3.0 °F 1007.0 in West 10.1 mph 20.6 mph 98 % 0.0 in
11:11 3.3 °F 3.0 °F 1006.0 in WSW 5.8 mph 16.3 mph 98 % 0.0 in
11:21 3.3 °F 3.0 °F 1006.0 in NW 8.7 mph 21.2 mph 98 % 0.0 in
11:26 3.3 °F 3.0 °F 1007.0 in WSW 17.7 mph 21.2 mph 98 % 0.0 in
11:36 3.4 °F 3.0 °F 1007.0 in WSW 13.0 mph 20.1 mph 98 % 0.0 in
11:41 3.3 °F 3.0 °F 1007.0 in West 13.0 mph 21.2 mph 98 % 0.0 in
11:46 3.4 °F 3.0 °F 1007.0 in West 23.0 mph 23.0 mph 98 % 0.0 in
11:51 3.4 °F 3.0 °F 1007.0 in West 14.0 mph 23.0 mph 98 % 0.0 in
11:56 3.5 °F 4.0 °F 1007.0 in West 20.9 mph 25.3 mph 98 % 0.0 in
12:07 3.1 °F 3.0 °F 1007.0 in WSW 15.8 mph 25.3 mph 98 % 0.3 in
12:12 3.0 °F 3.0 °F 1006.0 in WNW 7.9 mph 24.5 mph 98 % 0.3 in
12:17 2.8 °F 3.0 °F 1006.0 in WSW 16.6 mph 22.7 mph 98 % 0.3 in
12:22 2.8 °F 3.0 °F 1006.0 in WNW 6.4 mph 22.4 mph 98 % 0.3 in
12:27 2.8 °F 3.0 °F 1006.0 in WNW 12.6 mph 23.0 mph 98 % 0.3 in
12:32 3.0 °F 3.0 °F 1006.0 in West 19.5 mph 24.5 mph 98 % 0.3 in
12:37 3.0 °F 3.0 °F 1006.0 in WSW 17.2 mph 24.5 mph 98 % 0.3 in
12:42 3.1 °F 3.0 °F 1006.0 in West 13.7 mph 20.6 mph 98 % 0.3 in
12:47 3.1 °F 3.0 °F 1006.0 in West 17.2 mph 24.5 mph 98 % 0.3 in
12:52 3.0 °F 3.0 °F 1006.0 in West 16.9 mph 26.2 mph 98 % 0.3 in
12:57 3.0 °F 3.0 °F 1006.0 in West 4.3 mph 27.4 mph 98 % 0.3 in
13:02 2.9 °F 3.0 °F 1006.0 in WSW 9.3 mph 27.4 mph 98 % 0.3 in
13:07 2.9 °F 3.0 °F 1006.0 in West 17.2 mph 20.6 mph 98 % 0.0 in
13:17 2.8 °F 3.0 °F 1006.0 in West 16.6 mph 23.0 mph 98 % 0.0 in
13:22 2.9 °F 3.0 °F 1006.0 in NW 19.5 mph 23.0 mph 98 % 0.0 in
13:27 3.0 °F 3.0 °F 1005.0 in West 17.7 mph 21.2 mph 98 % 0.0 in
13:32 3.1 °F 3.0 °F 1005.0 in WSW 9.0 mph 23.3 mph 98 % 0.0 in
13:37 3.1 °F 3.0 °F 1005.0 in West 12.6 mph 23.3 mph 98 % 0.0 in
13:42 3.2 °F 3.0 °F 1005.0 in West 13.0 mph 21.2 mph 98 % 0.0 in
13:47 3.3 °F 3.0 °F 1005.0 in West 12.2 mph 21.2 mph 98 % 0.0 in
13:52 3.4 °F 3.0 °F 1005.0 in West 12.2 mph 21.2 mph 98 % 0.0 in
13:57 3.4 °F 3.0 °F 1005.0 in West 9.0 mph 17.7 mph 98 % 0.0 in
14:07 3.5 °F 4.0 °F 1005.0 in West 5.8 mph 16.3 mph 98 % 0.0 in
14:12 3.5 °F 4.0 °F 1005.0 in West 4.0 mph 14.0 mph 98 % 0.0 in
14:17 3.5 °F 4.0 °F 1005.0 in West 6.1 mph 14.0 mph 98 % 0.0 in
14:27 3.5 °F 4.0 °F 1005.0 in West 4.7 mph 14.0 mph 98 % 0.0 in
14:37 3.6 °F 4.0 °F 1005.0 in WNW 6.1 mph 10.5 mph 98 % 0.0 in
14:42 3.7 °F 4.0 °F 1005.0 in North 5.8 mph 15.4 mph 98 % 0.0 in
14:47 3.7 °F 4.0 °F 1005.0 in NW 9.3 mph 15.4 mph 98 % 0.0 in
14:52 3.7 °F 4.0 °F 1005.0 in WNW 7.2 mph 12.2 mph 98 % 0.0 in
14:57 3.7 °F 4.0 °F 1005.0 in NNE 4.7 mph 12.6 mph 98 % 0.0 in
15:02 3.7 °F 4.0 °F 1005.0 in WNW 4.0 mph 16.6 mph 98 % 0.0 in
15:07 3.7 °F 4.0 °F 1005.0 in NW 2.6 mph 16.6 mph 98 % 0.0 in
15:12 3.7 °F 4.0 °F 1005.0 in NW 4.7 mph 16.6 mph 98 % 0.0 in
15:17 3.7 °F 4.0 °F 1005.0 in NNW 6.4 mph 16.6 mph 98 % 0.0 in
15:22 3.7 °F 4.0 °F 1005.0 in West 12.6 mph 17.7 mph 98 % 0.0 in
15:27 3.7 °F 4.0 °F 1005.0 in NW 11.9 mph 17.7 mph 98 % 0.0 in
15:32 3.6 °F 4.0 °F 1005.0 in NW 5.0 mph 16.9 mph 98 % 0.0 in
15:42 3.6 °F 4.0 °F 1005.0 in NNW 9.3 mph 13.7 mph 98 % 0.0 in
15:48 3.6 °F 3.0 °F 1005.0 in West 6.9 mph 13.0 mph 97 % 0.0 in
15:53 3.6 °F 3.0 °F 1005.0 in West 6.9 mph 14.0 mph 97 % 0.0 in
15:58 3.6 °F 3.0 °F 1005.0 in NNW 9.3 mph 15.4 mph 97 % 0.0 in
16:03 3.6 °F 3.0 °F 1005.0 in North 8.7 mph 15.4 mph 97 % 0.0 in
16:08 3.6 °F 3.0 °F 1005.0 in West 1.4 mph 9.7 mph 97 % 0.0 in
16:13 3.6 °F 3.0 °F 1005.0 in WNW 5.8 mph 11.6 mph 97 % 0.0 in
16:18 3.5 °F 3.0 °F 1005.0 in West 6.4 mph 11.6 mph 97 % 0.0 in
16:33 3.5 °F 4.0 °F 1005.0 in West 8.7 mph 12.6 mph 98 % 0.0 in
16:38 3.5 °F 3.0 °F 1005.0 in WNW 5.5 mph 15.4 mph 97 % 0.0 in
16:48 3.5 °F 3.0 °F 1005.0 in WSW 4.0 mph 11.9 mph 97 % 0.0 in
16:59 3.4 °F 3.0 °F 1005.0 in WSW 9.0 mph 15.8 mph 97 % 0.3 in
17:04 3.3 °F 3.0 °F 1005.0 in West 4.7 mph 15.8 mph 97 % 0.3 in
17:09 3.2 °F 3.0 °F 1005.0 in West 4.3 mph 11.9 mph 97 % 0.3 in
17:14 3.1 °F 3.0 °F 1005.0 in North 4.3 mph 11.6 mph 97 % 0.5 in
17:24 3.1 °F 3.0 °F 1005.0 in NNW 10.5 mph 16.6 mph 98 % 0.5 in
17:29 3.1 °F 3.0 °F 1006.0 in NNW 6.4 mph 16.6 mph 98 % 0.5 in
17:39 3.0 °F 3.0 °F 1006.0 in WNW 12.6 mph 12.6 mph 98 % 0.5 in
17:44 3.0 °F 3.0 °F 1006.0 in West 5.0 mph 17.2 mph 98 % 0.8 in
17:49 3.0 °F 3.0 °F 1006.0 in WNW 13.7 mph 17.2 mph 98 % 0.8 in
17:59 2.8 °F 3.0 °F 1006.0 in West 6.9 mph 19.8 mph 98 % 0.5 in
18:04 2.7 °F 3.0 °F 1006.0 in West 11.9 mph 16.3 mph 98 % 0.5 in
18:09 2.5 °F 3.0 °F 1006.0 in West 5.8 mph 16.3 mph 98 % 0.3 in
18:14 2.5 °F 3.0 °F 1006.0 in WNW 7.9 mph 12.6 mph 98 % 0.3 in
18:19 2.4 °F 3.0 °F 1006.0 in SW 9.3 mph 12.2 mph 98 % 0.3 in
18:24 2.3 °F 3.0 °F 1006.0 in WNW 9.3 mph 14.0 mph 98 % 0.3 in
18:29 2.3 °F 3.0 °F 1005.0 in WSW 9.7 mph 14.0 mph 98 % 0.3 in
18:34 2.3 °F 3.0 °F 1005.0 in Calm   14.0 mph 98 % 0.3 in
18:39 2.3 °F 3.0 °F 1005.0 in WNW 4.0 mph 10.8 mph 98 % 0.5 in
18:44 2.3 °F 3.0 °F 1006.0 in Calm   10.5 mph 98 % 0.3 in
18:49 2.3 °F 3.0 °F 1006.0 in West 5.0 mph 10.8 mph 98 % 0.3 in
18:54 2.4 °F 3.0 °F 1006.0 in West 6.1 mph 11.6 mph 98 % 0.8 in
18:59 2.4 °F 3.0 °F 1005.0 in West 6.1 mph 12.2 mph 98 % 0.8 in
19:09 2.6 °F 3.0 °F 1005.0 in NNW 6.4 mph 10.1 mph 98 % 0.8 in
19:14 2.7 °F 3.0 °F 1005.0 in NW 4.3 mph 10.1 mph 98 % 0.8 in
19:19 2.7 °F 3.0 °F 1005.0 in WNW 5.5 mph 14.8 mph 98 % 0.8 in
19:24 2.8 °F 3.0 °F 1005.0 in NE 4.7 mph 14.8 mph 98 % 0.8 in
19:29 2.9 °F 3.0 °F 1005.0 in West 2.1 mph 12.6 mph 98 % 1.0 in
19:34 2.9 °F 3.0 °F 1005.0 in SSW 11.9 mph 11.9 mph 98 % 1.0 in
19:39 3.0 °F 3.0 °F 1005.0 in NNW 5.8 mph 11.9 mph 98 % 0.8 in
19:44 3.0 °F 3.0 °F 1005.0 in WNW 7.9 mph 10.8 mph 98 % 0.8 in
19:59 3.0 °F 3.0 °F 1006.0 in North 5.8 mph 20.6 mph 98 % 0.5 in
20:00 3.0 °F 3.0 °F 1006.0 in North 3.2 mph 20.6 mph 98 % 0.8 in
20:06 2.8 °F 3.0 °F 1006.0 in WSW 3.5 mph 16.9 mph 98 % 0.8 in
20:11 2.8 °F 3.0 °F 1006.0 in Calm   9.0 mph 98 % 1.3 in
20:16 2.7 °F 3.0 °F 1006.0 in Calm   7.9 mph 98 % 1.3 in
20:21 2.7 °F 3.0 °F 1006.0 in NE 9.7 mph 11.9 mph 98 % 1.3 in
20:31 2.1 °F 2.0 °F 1006.0 in NE 1.8 mph 15.8 mph 98 % 0.8 in
20:36 1.9 °F 2.0 °F 1006.0 in Calm   14.0 mph 98 % 0.8 in
20:41 1.7 °F 2.0 °F 1006.0 in Calm   9.7 mph 98 % 0.8 in
20:46 1.6 °F 2.0 °F 1006.0 in NE 10.1 mph 11.9 mph 98 % 0.8 in
20:56 1.2 °F 1.0 °F 1007.0 in North 4.7 mph 16.3 mph 98 % 0.8 in
21:06 1.1 °F 1.0 °F 1007.0 in North 8.7 mph 11.9 mph 98 % 0.5 in
21:11 1.0 °F 1.0 °F 1007.0 in North 7.9 mph 14.0 mph 98 % 0.3 in
21:16 1.0 °F 1.0 °F 1007.0 in North 5.0 mph 14.0 mph 98 % 0.3 in
21:26 0.9 °F 1.0 °F 1007.0 in Calm   10.5 mph 98 % 0.3 in
21:31 1.0 °F 1.0 °F 1007.0 in NNW 3.2 mph 10.5 mph 98 % 0.3 in
21:36 1.0 °F 1.0 °F 1007.0 in Calm   10.5 mph 98 % 0.3 in
21:41 1.0 °F 1.0 °F 1007.0 in Calm   6.1 mph 98 % 0.3 in
21:46 1.0 °F 1.0 °F 1007.0 in Calm   5.0 mph 98 % 0.0 in
21:56 1.0 °F 1.0 °F 1007.0 in Calm     98 % 0.3 in
22:01 1.0 °F 1.0 °F 1007.0 in Calm     98 % 0.8 in
22:06 1.0 °F 1.0 °F 1007.0 in Calm     98 % 0.8 in
22:11 1.0 °F 1.0 °F 1006.0 in Calm     98 % 1.0 in
22:16 1.0 °F 1.0 °F 1006.0 in Calm     98 % 1.0 in
22:31 1.0 °F 1.0 °F 1006.0 in North 5.0 mph 5.0 mph 98 % 1.5 in
22:36 1.0 °F 1.0 °F 1006.0 in NNW 5.0 mph 9.7 mph 98 % 1.5 in
22:41 1.0 °F 1.0 °F 1007.0 in NNW 4.3 mph 9.7 mph 98 % 1.5 in
22:46 0.9 °F 1.0 °F 1007.0 in WNW 2.6 mph 6.9 mph 98 % 1.5 in
22:51 0.9 °F 1.0 °F 1007.0 in WNW 2.6 mph 5.5 mph 98 % 1.5 in
22:56 0.9 °F 1.0 °F 1007.0 in NW 1.4 mph 5.8 mph 98 % 1.3 in
23:02 0.9 °F 1.0 °F 1007.0 in Calm   5.8 mph 98 % 0.8 in
23:22 0.9 °F 1.0 °F 1007.0 in Calm   4.0 mph 98 % 0.8 in
23:27 0.9 °F 1.0 °F 1007.0 in Calm     98 % 0.5 in
23:37 0.9 °F 1.0 °F 1007.0 in Calm   1.4 mph 98 % 0.8 in
23:42 0.9 °F 1.0 °F 1007.0 in Calm   1.8 mph 98 % 1.3 in
23:47 0.9 °F 1.0 °F 1007.0 in Calm   3.5 mph 98 % 1.3 in
23:52 0.9 °F 1.0 °F 1007.0 in Calm   3.5 mph 98 % 1.3 in
23:57 0.9 °F 1.0 °F 1007.0 in Calm   1.8 mph 98 % 1.5 in
Le Gheer Warneton
Courtoisie de Weather Underground - 2 mb

Mise a jour : 23/02/2018 07:44:11
Généré par Cumulus 1.9.4 (1099)